Barkley Regional Airport
KPAH : now visible

Airfield :











YOU CAN JOIN US ON...

 
LOGIN :

Register | Disclaimer

   EN    FR    IT 

 









Legend :    VFR   Marginal VFR   IFR   Intensive IFR   Very Intensive IFR
Visi :
Ceiling :
>= 8 km
>= 3000ft
5 to 8 km
1000 to 3000 ft
1500m to 5 km
500 to 1000 ft
800 to 1500m
200 to 500 ft
< 800m
< 200 ft
Symbols :   Thunderstorms  Fog  Heavy snow  Heavy precipitations  Wind > 20 kt






- Airport Elevation : 410 ft
- IATA code : PAH


KPAH - Barkley Regional

CURRENT METAR :
  • 271253Z 00000KT 7SM BKN075 02/01 A3012 RMK AO2 SLP200 T00220011

EXPIRED METARs :
  • 271159Z 00000KT 4SM BR FEW002 BKN080 01/00 A3011 RMK AO2 T00110000 $
  • 271151Z 12004KT 1 3/4SM BR SCT002 SCT080 01/00 A3010 RMK AO2 $
  • 271132Z AUTO 00000KT 1 3/4SM BR FEW002 01/00 A3011 RMK AO2 T00110000 $
  • 271114Z AUTO 00000KT 1/2SM FG VV002 01/01 A3010 RMK AO2 T00110006 $
  • 271105Z AUTO 11003KT 1 1/2SM BR BKN002 01/00 A3010 RMK AO2 T00110000 $
  • 271053Z AUTO 10003KT 5SM BR BKN002 01/00 A3010 RMK AO2 SLP192 I1000 T00110000 $
  • 271036Z AUTO 12003KT 5SM BR SCT002 02/00 A3010 RMK AO2 I1000 T00170000 $

TAF KPAH
Valid from the 27 at 12:00 until the 28 at 12:00 UTC


271120Z 2712/2812 VRB03KT 3SM BR FEW002 BKN080
TEMPO 2712/2715 1SM BR VV002
FM271500 33006KT P6SM SCT080
FM280600 36007KT P6SM SKC
KZME FIR / North America



MET'MAP, your aeronautical weather chart ! - Copyright ORBIFLY December 2007 - Disclaimer

ORBIFLY MET'MAP TEAM :

Programming & Development : Alexandra Zaïnal
Concept & original design : Baudouin d'Aumeries
Assistance for programming : Marc-Olivier Méhu
Technical & hardware support : Manuel Goepfert

Contact : metmap@orbifly.com




SOURCES & CREDITS :

   NOAA       Earth
Advisory